Time;durP1;ratioP1;P1;durP2;ratioP2;P2;SDS_P1;SDS_P2;PMS_P1;PMS_P2;Temp;Humidity;BMP_temperature;BMP_pressure;BME280_temperature;BME280_humidity;BME280_pressure;Samples;Min_cycle;Max_cycle;Signal;HPM_P1;HPM_P2
2021/09/06 00:01:43;;;;;;;17.20;9.98;;;;;;;;;;5048478;28;20036;-60
2021/09/06 00:04:09;;;;;;;20.40;10.82;;;;;;;;;;5049005;28;20484;-60
2021/09/06 00:06:38;;;;;;;20.42;10.82;;;;;;;;;;5048296;28;20214;-60
2021/09/06 00:09:04;;;;;;;19.83;11.25;;;;;;;;;;5047244;28;20031;-60
2021/09/06 00:11:30;;;;;;;19.40;11.10;;;;;;;;;;5053606;28;20028;-60
2021/09/06 00:13:55;;;;;;;24.80;11.07;;;;;;;;;;5048325;28;20029;-60
2021/09/06 00:16:20;;;;;;;19.73;11.13;;;;;;;;;;5049096;28;20029;-59
2021/09/06 00:18:46;;;;;;;22.85;11.32;;;;;;;;;;5047914;28;20458;-60
2021/09/06 00:21:11;;;;;;;19.17;10.90;;;;;;;;;;5044309;28;20458;-60
2021/09/06 00:23:37;;;;;;;19.75;10.70;;;;;;;;;;5046758;28;20037;-59
2021/09/06 00:26:03;;;;;;;20.30;10.70;;;;;;;;;;5047498;28;20044;-60
2021/09/06 00:28:29;;;;;;;19.60;10.40;;;;;;;;;;5049400;28;20503;-59
2021/09/06 00:30:55;;;;;;;22.38;10.82;;;;;;;;;;5055485;28;20025;-60
2021/09/06 00:33:20;;;;;;;18.85;10.27;;;;;;;;;;5047837;28;20107;-59
2021/09/06 00:35:48;;;;;;;21.58;11.90;;;;;;;;;;5046937;28;20017;-59
2021/09/06 00:38:16;;;;;;;17.08;10.15;;;;;;;;;;5047420;28;20079;-59
2021/09/06 00:40:43;;;;;;;17.38;10.52;;;;;;;;;;5048267;28;20107;-61
2021/09/06 00:43:08;;;;;;;17.98;10.05;;;;;;;;;;5047403;28;20494;-60
2021/09/06 00:45:34;;;;;;;21.73;11.20;;;;;;;;;;5046841;28;20040;-60
2021/09/06 00:47:59;;;;;;;17.90;10.60;;;;;;;;;;5046547;28;20025;-60
2021/09/06 00:50:24;;;;;;;21.00;10.55;;;;;;;;;;5052472;28;20634;-59
2021/09/06 00:52:50;;;;;;;25.20;10.73;;;;;;;;;;5057410;28;20036;-61
2021/09/06 00:55:17;;;;;;;19.48;11.00;;;;;;;;;;5071195;28;20024;-59
2021/09/06 00:57:44;;;;;;;15.70;9.77;;;;;;;;;;5050744;28;20043;-60
2021/09/06 01:00:10;;;;;;;22.88;11.10;;;;;;;;;;5051766;28;20488;-60
2021/09/06 01:02:36;;;;;;;21.13;11.18;;;;;;;;;;5050525;28;20037;-60
2021/09/06 01:05:03;;;;;;;20.08;11.90;;;;;;;;;;5052069;28;20431;-60
2021/09/06 01:07:28;;;;;;;19.23;11.30;;;;;;;;;;5048524;28;20059;-61
2021/09/06 01:09:54;;;;;;;20.75;10.50;;;;;;;;;;5052718;28;20068;-60
2021/09/06 01:12:19;;;;;;;18.25;10.30;;;;;;;;;;5050685;28;20072;-60
2021/09/06 01:14:45;;;;;;;18.00;10.15;;;;;;;;;;5067291;28;20047;-60
2021/09/06 01:17:11;;;;;;;19.23;10.45;;;;;;;;;;5052017;28;20036;-60
2021/09/06 01:19:39;;;;;;;18.65;10.43;;;;;;;;;;5050173;28;20036;-60
2021/09/06 01:22:07;;;;;;;18.92;10.05;;;;;;;;;;5051735;28;20032;-60
2021/09/06 01:24:33;;;;;;;20.13;9.70;;;;;;;;;;5051065;28;20025;-60
2021/09/06 01:26:58;;;;;;;23.58;11.13;;;;;;;;;;5051280;28;20029;-61
2021/09/06 01:29:24;;;;;;;20.70;10.65;;;;;;;;;;5050111;28;20035;-60
2021/09/06 01:31:49;;;;;;;19.90;10.82;;;;;;;;;;5051319;28;20056;-60
2021/09/06 01:34:15;;;;;;;20.48;10.65;;;;;;;;;;5054083;28;20021;-61
2021/09/06 01:36:40;;;;;;;18.52;10.25;;;;;;;;;;5050555;28;20050;-60
2021/09/06 01:39:06;;;;;;;19.75;10.73;;;;;;;;;;5052456;28;20025;-60
2021/09/06 01:41:32;;;;;;;19.88;10.98;;;;;;;;;;5065605;28;20033;-60
2021/09/06 01:43:58;;;;;;;17.83;9.82;;;;;;;;;;5051660;28;20035;-60
2021/09/06 01:46:34;;;;;;;20.75;11.13;;;;;;;;;;5053414;28;20028;-61
2021/09/06 01:49:00;;;;;;;20.13;10.35;;;;;;;;;;5064815;28;20051;-60
2021/09/06 01:51:27;;;;;;;20.10;10.98;;;;;;;;;;5049375;28;20040;-61
2021/09/06 01:53:53;;;;;;;17.48;9.65;;;;;;;;;;5065983;28;20057;-61
2021/09/06 01:56:18;;;;;;;18.33;10.77;;;;;;;;;;5070349;28;20024;-61
2021/09/06 01:58:44;;;;;;;20.23;10.50;;;;;;;;;;5051315;28;20025;-61
2021/09/06 02:01:10;;;;;;;18.13;10.45;;;;;;;;;;5048345;28;20036;-61
2021/09/06 02:03:35;;;;;;;17.52;9.80;;;;;;;;;;5049590;28;20128;-61
2021/09/06 02:06:01;;;;;;;19.10;9.95;;;;;;;;;;5049251;28;20055;-61
2021/09/06 02:08:26;;;;;;;20.48;10.18;;;;;;;;;;5048587;28;20069;-62
2021/09/06 02:10:52;;;;;;;19.25;10.55;;;;;;;;;;5048963;28;20108;-61
2021/09/06 02:13:17;;;;;;;22.15;10.52;;;;;;;;;;5051013;28;20056;-61
2021/09/06 02:15:42;;;;;;;21.55;11.10;;;;;;;;;;5052973;28;20112;-61
2021/09/06 02:18:08;;;;;;;20.50;11.75;;;;;;;;;;5051991;28;20475;-61
2021/09/06 02:20:34;;;;;;;19.25;10.38;;;;;;;;;;5051408;28;20043;-61
2021/09/06 02:22:59;;;;;;;19.45;10.23;;;;;;;;;;5049208;28;20044;-62
2021/09/06 02:25:24;;;;;;;20.75;11.15;;;;;;;;;;5059939;28;20035;-61
2021/09/06 02:27:50;;;;;;;21.30;10.95;;;;;;;;;;5047561;28;20377;-61
2021/09/06 02:30:15;;;;;;;18.77;10.70;;;;;;;;;;5053379;28;20111;-61
2021/09/06 02:32:41;;;;;;;21.95;11.02;;;;;;;;;;5050567;28;20508;-62
2021/09/06 02:35:07;;;;;;;17.40;10.48;;;;;;;;;;5050279;28;20024;-60
2021/09/06 02:37:32;;;;;;;20.50;10.55;;;;;;;;;;5053205;28;20028;-61
2021/09/06 02:39:57;;;;;;;18.25;10.55;;;;;;;;;;5052194;28;20487;-60
2021/09/06 02:42:23;;;;;;;17.52;10.68;;;;;;;;;;5049991;28;20020;-60
2021/09/06 02:44:48;;;;;;;19.80;10.60;;;;;;;;;;5047866;28;20049;-61
2021/09/06 02:47:14;;;;;;;20.83;10.63;;;;;;;;;;5050631;28;20020;-61
2021/09/06 02:49:39;;;;;;;17.85;10.30;;;;;;;;;;5063795;28;20033;-60
2021/09/06 02:52:05;;;;;;;18.98;10.35;;;;;;;;;;5049731;28;20040;-60
2021/09/06 02:54:30;;;;;;;18.38;9.98;;;;;;;;;;5048892;28;20035;-60
2021/09/06 02:56:56;;;;;;;19.05;10.73;;;;;;;;;;5048893;28;20116;-60
2021/09/06 02:59:21;;;;;;;16.20;9.68;;;;;;;;;;5048294;28;20032;-60
2021/09/06 03:01:46;;;;;;;21.50;10.57;;;;;;;;;;5049010;28;20033;-60
2021/09/06 03:04:12;;;;;;;23.83;12.05;;;;;;;;;;5047609;28;20484;-60
2021/09/06 03:06:37;;;;;;;21.88;11.13;;;;;;;;;;5052878;28;20609;-59
2021/09/06 03:09:03;;;;;;;18.67;10.27;;;;;;;;;;5048311;28;20021;-60
2021/09/06 03:11:28;;;;;;;20.15;10.63;;;;;;;;;;5050140;28;20032;-60
2021/09/06 03:13:55;;;;;;;22.35;11.32;;;;;;;;;;5047818;28;20044;-60
2021/09/06 03:16:22;;;;;;;25.13;11.88;;;;;;;;;;5052551;28;20017;-59
2021/09/06 03:18:49;;;;;;;20.67;10.90;;;;;;;;;;5048555;28;20059;-59
2021/09/06 03:21:15;;;;;;;21.98;11.10;;;;;;;;;;5050507;28;20065;-60
2021/09/06 03:23:40;;;;;;;19.73;10.05;;;;;;;;;;5050153;28;20032;-59
2021/09/06 03:26:06;;;;;;;24.17;11.80;;;;;;;;;;5049076;28;20031;-59
2021/09/06 03:28:31;;;;;;;20.38;10.90;;;;;;;;;;5049092;28;20068;-61
2021/09/06 03:30:57;;;;;;;21.33;11.00;;;;;;;;;;5047702;28;20136;-60
2021/09/06 03:33:22;;;;;;;27.40;11.40;;;;;;;;;;5048346;28;20024;-60
2021/09/06 03:35:48;;;;;;;19.15;11.18;;;;;;;;;;5048533;28;20029;-60
2021/09/06 03:38:14;;;;;;;19.20;10.57;;;;;;;;;;5049273;28;20032;-60
2021/09/06 03:40:40;;;;;;;18.58;10.05;;;;;;;;;;5049252;28;20028;-59
2021/09/06 03:43:05;;;;;;;20.55;10.65;;;;;;;;;;5041521;28;20029;-60
2021/09/06 03:45:32;;;;;;;21.25;11.10;;;;;;;;;;5050280;28;20390;-59
2021/09/06 03:47:57;;;;;;;23.95;11.75;;;;;;;;;;5054474;28;20033;-61
2021/09/06 03:50:23;;;;;;;22.20;10.75;;;;;;;;;;5047034;28;20025;-60
2021/09/06 03:52:48;;;;;;;21.70;11.77;;;;;;;;;;5049758;28;20052;-61
2021/09/06 03:55:14;;;;;;;20.98;10.27;;;;;;;;;;5048074;28;20505;-61
2021/09/06 03:57:40;;;;;;;22.10;10.52;;;;;;;;;;5048646;28;20469;-61
2021/09/06 04:00:06;;;;;;;26.85;12.48;;;;;;;;;;5052456;28;20044;-61
2021/09/06 04:02:32;;;;;;;24.55;12.07;;;;;;;;;;5046897;28;20029;-61
2021/09/06 04:04:59;;;;;;;25.13;12.00;;;;;;;;;;5045292;28;20178;-61
2021/09/06 04:07:25;;;;;;;24.90;11.30;;;;;;;;;;5047185;28;20032;-61
2021/09/06 04:09:50;;;;;;;19.73;10.48;;;;;;;;;;5047498;28;20031;-61
2021/09/06 04:12:16;;;;;;;20.73;11.35;;;;;;;;;;5052492;28;20017;-61
2021/09/06 04:14:42;;;;;;;26.60;13.07;;;;;;;;;;5048541;28;20063;-61
2021/09/06 04:17:07;;;;;;;22.70;11.50;;;;;;;;;;5047777;28;20052;-61
2021/09/06 04:19:33;;;;;;;23.27;11.82;;;;;;;;;;5055698;28;20036;-62
2021/09/06 04:22:00;;;;;;;21.63;11.20;;;;;;;;;;5047107;28;20021;-61
2021/09/06 04:24:26;;;;;;;20.08;10.52;;;;;;;;;;5048966;28;20048;-58
2021/09/06 04:26:52;;;;;;;20.33;10.93;;;;;;;;;;5051264;28;20181;-57
2021/09/06 04:29:18;;;;;;;21.73;10.82;;;;;;;;;;5051673;28;20581;-57
2021/09/06 04:31:44;;;;;;;21.25;10.85;;;;;;;;;;5051317;28;20100;-58
2021/09/06 04:34:09;;;;;;;20.13;9.93;;;;;;;;;;5053296;28;20096;-57
2021/09/06 04:36:35;;;;;;;19.52;10.38;;;;;;;;;;5051777;28;20395;-58
2021/09/06 04:39:00;;;;;;;20.45;11.23;;;;;;;;;;5049509;28;20033;-57
2021/09/06 04:41:26;;;;;;;21.15;11.70;;;;;;;;;;5052144;28;20025;-58
2021/09/06 04:43:51;;;;;;;25.90;12.23;;;;;;;;;;5052298;28;20028;-58
2021/09/06 04:46:17;;;;;;;23.67;11.68;;;;;;;;;;5052592;28;20025;-60
2021/09/06 04:48:42;;;;;;;25.75;11.98;;;;;;;;;;5049961;28;20033;-59
2021/09/06 04:51:08;;;;;;;19.33;9.75;;;;;;;;;;5053324;28;20024;-60
2021/09/06 04:53:33;;;;;;;20.08;10.57;;;;;;;;;;5053707;28;20364;-61
2021/09/06 04:55:59;;;;;;;18.45;10.43;;;;;;;;;;5052874;28;20487;-59
2021/09/06 04:58:25;;;;;;;18.98;10.13;;;;;;;;;;5050514;28;20079;-59
2021/09/06 05:00:50;;;;;;;20.95;10.98;;;;;;;;;;5051389;28;20060;-60
2021/09/06 05:03:15;;;;;;;19.17;10.15;;;;;;;;;;5050609;28;20025;-60
2021/09/06 05:05:41;;;;;;;22.05;11.05;;;;;;;;;;5050858;28;20033;-60
2021/09/06 05:08:06;;;;;;;17.98;9.85;;;;;;;;;;5056520;28;20085;-60
2021/09/06 05:10:32;;;;;;;21.67;10.50;;;;;;;;;;5052321;28;20024;-60
2021/09/06 05:12:58;;;;;;;25.55;13.93;;;;;;;;;;5050524;28;20035;-60
2021/09/06 05:15:24;;;;;;;31.75;15.25;;;;;;;;;;5054264;28;20029;-60
2021/09/06 05:17:49;;;;;;;23.65;12.15;;;;;;;;;;5062436;28;20510;-60
2021/09/06 05:20:15;;;;;;;26.25;12.35;;;;;;;;;;5047603;28;20033;-60
2021/09/06 05:22:40;;;;;;;27.98;13.45;;;;;;;;;;5047171;28;20074;-59
2021/09/06 05:25:07;;;;;;;32.88;14.50;;;;;;;;;;5049719;28;20028;-60
2021/09/06 05:27:33;;;;;;;24.05;11.15;;;;;;;;;;5049909;28;20706;-59
2021/09/06 05:29:58;;;;;;;20.45;10.73;;;;;;;;;;5051792;28;20032;-63
2021/09/06 05:32:24;;;;;;;17.15;9.20;;;;;;;;;;5042719;28;20051;-61
2021/09/06 05:34:50;;;;;;;21.67;10.85;;;;;;;;;;5044754;28;20029;-59
2021/09/06 05:37:15;;;;;;;24.65;10.63;;;;;;;;;;5045501;28;20071;-58
2021/09/06 05:39:41;;;;;;;22.58;11.40;;;;;;;;;;5050512;28;20078;-59
2021/09/06 05:42:06;;;;;;;24.00;11.07;;;;;;;;;;5044610;28;20558;-59
2021/09/06 05:44:32;;;;;;;23.27;11.32;;;;;;;;;;5044462;28;20044;-59
2021/09/06 05:46:57;;;;;;;20.77;11.05;;;;;;;;;;5044127;28;20029;-59
2021/09/06 05:49:23;;;;;;;21.33;10.48;;;;;;;;;;5045550;28;20096;-59
2021/09/06 05:51:48;;;;;;;37.25;16.73;;;;;;;;;;5046645;28;20029;-59
2021/09/06 05:54:13;;;;;;;36.80;16.23;;;;;;;;;;5045846;28;20025;-59
2021/09/06 05:56:39;;;;;;;24.95;11.45;;;;;;;;;;5045705;28;20037;-59
2021/09/06 05:59:04;;;;;;;21.30;10.88;;;;;;;;;;5047096;28;20123;-59
2021/09/06 06:01:30;;;;;;;22.33;11.65;;;;;;;;;;5045181;28;20399;-59
2021/09/06 06:03:55;;;;;;;21.45;10.35;;;;;;;;;;5046652;28;20029;-59
2021/09/06 06:06:20;;;;;;;19.40;10.27;;;;;;;;;;5046906;28;20032;-58
2021/09/06 06:08:46;;;;;;;21.38;10.50;;;;;;;;;;5047993;28;20017;-58
2021/09/06 06:11:11;;;;;;;20.30;10.48;;;;;;;;;;5046738;28;20142;-58
2021/09/06 06:13:37;;;;;;;23.35;11.23;;;;;;;;;;5050209;28;20033;-58
2021/09/06 06:16:02;;;;;;;22.67;11.55;;;;;;;;;;5061868;28;20048;-58
2021/09/06 06:18:28;;;;;;;29.73;14.30;;;;;;;;;;5046425;28;20369;-59
2021/09/06 06:20:53;;;;;;;30.55;13.48;;;;;;;;;;5046458;28;20468;-59
2021/09/06 06:23:19;;;;;;;22.55;12.10;;;;;;;;;;5045559;28;20443;-59
2021/09/06 06:25:44;;;;;;;20.48;11.30;;;;;;;;;;5045384;28;20040;-59
2021/09/06 06:28:09;;;;;;;22.63;11.65;;;;;;;;;;5045206;28;20242;-60
2021/09/06 06:30:35;;;;;;;22.08;11.68;;;;;;;;;;5048944;28;20044;-59
2021/09/06 06:33:00;;;;;;;26.30;13.00;;;;;;;;;;5048317;28;20028;-60
2021/09/06 06:35:26;;;;;;;24.10;12.32;;;;;;;;;;5046333;28;20116;-59
2021/09/06 06:37:51;;;;;;;22.70;12.20;;;;;;;;;;5057623;28;20383;-59
2021/09/06 06:40:17;;;;;;;28.55;12.65;;;;;;;;;;5059557;28;20407;-59
2021/09/06 06:42:42;;;;;;;24.90;12.32;;;;;;;;;;5043378;28;20055;-60
2021/09/06 06:45:08;;;;;;;23.08;12.05;;;;;;;;;;5042649;28;20033;-59
2021/09/06 06:47:34;;;;;;;22.77;11.75;;;;;;;;;;5045194;28;20133;-60
2021/09/06 06:49:59;;;;;;;22.85;11.90;;;;;;;;;;5043343;28;20036;-60
2021/09/06 06:52:24;;;;;;;24.80;13.60;;;;;;;;;;5046913;28;20403;-60
2021/09/06 06:54:50;;;;;;;27.95;14.25;;;;;;;;;;5045638;28;20522;-60
2021/09/06 06:57:18;;;;;;;28.35;13.52;;;;;;;;;;5045691;28;20492;-59
2021/09/06 06:59:43;;;;;;;26.98;13.93;;;;;;;;;;5045231;28;20082;-60
2021/09/06 07:02:09;;;;;;;27.02;14.60;;;;;;;;;;5045652;28;20112;-59
2021/09/06 07:04:34;;;;;;;28.00;15.15;;;;;;;;;;5046613;28;20040;-60
2021/09/06 07:07:00;;;;;;;29.05;14.48;;;;;;;;;;5046380;28;20044;-59
2021/09/06 07:09:25;;;;;;;27.38;15.13;;;;;;;;;;5045034;28;20037;-59
2021/09/06 07:11:51;;;;;;;26.90;13.70;;;;;;;;;;5046695;28;20021;-60
2021/09/06 07:14:16;;;;;;;24.35;13.18;;;;;;;;;;5051272;28;20488;-60
2021/09/06 07:16:41;;;;;;;25.85;13.43;;;;;;;;;;5046955;28;20060;-60
2021/09/06 07:19:07;;;;;;;25.92;14.27;;;;;;;;;;5047392;28;20037;-60
2021/09/06 07:21:32;;;;;;;28.45;13.73;;;;;;;;;;5044231;28;20468;-60
2021/09/06 07:23:58;;;;;;;23.65;12.98;;;;;;;;;;5046503;28;20086;-60
2021/09/06 07:26:23;;;;;;;28.50;14.02;;;;;;;;;;5047123;28;20020;-60
2021/09/06 07:28:48;;;;;;;27.17;14.10;;;;;;;;;;5045062;28;20017;-60
2021/09/06 07:31:14;;;;;;;23.33;13.32;;;;;;;;;;5046340;28;20017;-60
2021/09/06 07:33:39;;;;;;;24.20;13.32;;;;;;;;;;5047052;28;20061;-60
2021/09/06 07:36:05;;;;;;;28.52;13.60;;;;;;;;;;5045190;28;20078;-60
2021/09/06 07:38:30;;;;;;;25.13;13.88;;;;;;;;;;5041745;28;20518;-60
2021/09/06 07:40:56;;;;;;;21.70;12.70;;;;;;;;;;5046165;28;20112;-60
2021/09/06 07:43:23;;;;;;;22.48;13.18;;;;;;;;;;5043761;28;20025;-60
2021/09/06 07:45:49;;;;;;;22.77;12.13;;;;;;;;;;5038935;28;20029;-60
2021/09/06 07:48:14;;;;;;;23.85;13.00;;;;;;;;;;5041795;28;20647;-60
2021/09/06 07:50:41;;;;;;;25.60;13.15;;;;;;;;;;5045498;28;20025;-60
2021/09/06 07:53:07;;;;;;;25.73;12.45;;;;;;;;;;5046648;28;20029;-60
2021/09/06 07:55:32;;;;;;;24.65;13.25;;;;;;;;;;5041607;28;20036;-61
2021/09/06 07:57:58;;;;;;;20.27;11.48;;;;;;;;;;5053578;28;20024;-61
2021/09/06 08:00:23;;;;;;;23.67;11.98;;;;;;;;;;5066658;28;20185;-61
2021/09/06 08:02:49;;;;;;;22.73;11.75;;;;;;;;;;5049601;28;20021;-62
2021/09/06 08:05:23;;;;;;;21.33;11.70;;;;;;;;;;5051448;28;20429;-61
2021/09/06 08:07:49;;;;;;;22.17;11.95;;;;;;;;;;5048694;28;20036;-61
2021/09/06 08:10:15;;;;;;;20.65;11.77;;;;;;;;;;5049540;28;20067;-61
2021/09/06 08:12:42;;;;;;;22.35;11.93;;;;;;;;;;5052950;28;20024;-60
2021/09/06 08:15:08;;;;;;;18.90;11.23;;;;;;;;;;5047512;28;20017;-60
2021/09/06 08:17:35;;;;;;;18.88;11.43;;;;;;;;;;5046390;28;20055;-60
2021/09/06 08:20:03;;;;;;;19.08;11.77;;;;;;;;;;5047027;28;20025;-60
2021/09/06 08:22:28;;;;;;;18.85;11.80;;;;;;;;;;5047002;28;20445;-60
2021/09/06 08:24:54;;;;;;;20.58;12.50;;;;;;;;;;5051887;28;20028;-60
2021/09/06 08:27:21;;;;;;;23.17;12.77;;;;;;;;;;5049015;28;20032;-60
2021/09/06 08:29:48;;;;;;;21.00;11.68;;;;;;;;;;5047856;28;20202;-61
2021/09/06 08:32:13;;;;;;;25.55;12.38;;;;;;;;;;5050506;28;20028;-60
2021/09/06 08:34:38;;;;;;;22.30;12.25;;;;;;;;;;5049768;28;20029;-60
2021/09/06 08:37:04;;;;;;;22.73;12.18;;;;;;;;;;5048998;28;20036;-60
2021/09/06 08:39:29;;;;;;;23.10;12.18;;;;;;;;;;5048407;28;20238;-60
2021/09/06 08:41:55;;;;;;;26.65;12.38;;;;;;;;;;5048052;28;20383;-61
2021/09/06 08:44:25;;;;;;;21.40;10.68;;;;;;;;;;5052211;28;20024;-60
2021/09/06 08:46:52;;;;;;;21.90;11.75;;;;;;;;;;5049145;28;20108;-62
2021/09/06 08:49:18;;;;;;;23.85;11.25;;;;;;;;;;5047381;28;20272;-60
2021/09/06 08:51:43;;;;;;;19.20;11.80;;;;;;;;;;5047249;28;20029;-61
2021/09/06 08:54:09;;;;;;;23.25;11.70;;;;;;;;;;5047749;28;20395;-59
2021/09/06 08:56:36;;;;;;;18.83;11.43;;;;;;;;;;5049605;28;20111;-60
2021/09/06 08:59:01;;;;;;;23.73;12.07;;;;;;;;;;5045853;28;20174;-61
2021/09/06 09:01:56;;;;;;;21.63;11.57;;;;;;;;;;5048178;28;20505;-62
2021/09/06 09:04:26;;;;;;;22.05;11.95;;;;;;;;;;5029251;28;20496;-60
2021/09/06 09:06:56;;;;;;;23.23;12.10;;;;;;;;;;5046702;28;20029;-60
2021/09/06 09:09:28;;;;;;;21.33;11.63;;;;;;;;;;5048028;28;20173;-60
2021/09/06 09:12:25;;;;;;;20.70;11.77;;;;;;;;;;5044308;28;20024;-61
2021/09/06 09:14:53;;;;;;;23.38;12.50;;;;;;;;;;5049147;28;20669;-61
2021/09/06 09:17:19;;;;;;;23.38;11.85;;;;;;;;;;5052380;28;20447;-60
2021/09/06 09:19:45;;;;;;;21.15;12.10;;;;;;;;;;5044832;28;20025;-60
2021/09/06 09:22:13;;;;;;;20.73;12.23;;;;;;;;;;5051607;28;20020;-61
2021/09/06 09:24:39;;;;;;;23.05;12.18;;;;;;;;;;5048224;28;20067;-61
2021/09/06 09:27:08;;;;;;;19.23;11.27;;;;;;;;;;5047409;28;20267;-60
2021/09/06 09:29:34;;;;;;;21.07;12.07;;;;;;;;;;5046875;28;20063;-61
2021/09/06 09:32:06;;;;;;;20.08;11.38;;;;;;;;;;5049646;28;20492;-61
2021/09/06 09:34:36;;;;;;;23.35;11.55;;;;;;;;;;5046308;28;20095;-61
2021/09/06 09:37:01;;;;;;;22.58;11.95;;;;;;;;;;5045208;28;20025;-61
2021/09/06 09:39:27;;;;;;;28.17;12.23;;;;;;;;;;5052137;28;20483;-60
2021/09/06 09:42:03;;;;;;;21.90;12.70;;;;;;;;;;5049441;28;20066;-61
2021/09/06 09:44:29;;;;;;;20.88;11.57;;;;;;;;;;5046437;28;20055;-60
2021/09/06 09:47:01;;;;;;;20.67;11.73;;;;;;;;;;5052249;28;20534;-61
2021/09/06 09:49:29;;;;;;;18.92;12.15;;;;;;;;;;5046021;28;20035;-60
2021/09/06 09:51:55;;;;;;;21.45;11.18;;;;;;;;;;5045323;28;20029;-61
2021/09/06 09:54:21;;;;;;;17.80;11.60;;;;;;;;;;5046357;28;20021;-61
2021/09/06 09:56:47;;;;;;;20.92;11.70;;;;;;;;;;5049045;28;20094;-61
2021/09/06 09:59:14;;;;;;;24.75;11.77;;;;;;;;;;5045931;28;20338;-61
2021/09/06 10:02:09;;;;;;;18.02;10.98;;;;;;;;;;5043658;28;20040;-61
2021/09/06 10:04:40;;;;;;;20.10;11.70;;;;;;;;;;5043934;28;20032;-59
2021/09/06 10:07:08;;;;;;;19.42;11.57;;;;;;;;;;5056392;28;20056;-60
2021/09/06 10:09:44;;;;;;;22.38;11.85;;;;;;;;;;5059601;28;20071;-60
2021/09/06 10:12:11;;;;;;;17.95;10.90;;;;;;;;;;5043580;28;20479;-59
2021/09/06 10:14:48;;;;;;;22.80;11.35;;;;;;;;;;5060923;28;20162;-58
2021/09/06 10:17:14;;;;;;;22.30;12.27;;;;;;;;;;5050827;28;20039;-58
2021/09/06 10:19:45;;;;;;;29.40;11.80;;;;;;;;;;5047015;28;20048;-58
2021/09/06 10:22:25;;;;;;;21.50;12.07;;;;;;;;;;5044888;28;20033;-58
2021/09/06 10:25:10;;;;;;;18.67;11.40;;;;;;;;;;5046477;28;20120;-59
2021/09/06 10:27:49;;;;;;;19.52;11.77;;;;;;;;;;5047591;28;20399;-58
2021/09/06 10:30:14;;;;;;;19.40;12.10;;;;;;;;;;5041815;28;20020;-58
2021/09/06 10:32:42;;;;;;;20.73;12.18;;;;;;;;;;5047464;28;20463;-58
2021/09/06 10:35:12;;;;;;;20.73;12.20;;;;;;;;;;5049872;28;20042;-58
2021/09/06 10:37:40;;;;;;;18.42;11.55;;;;;;;;;;5049162;28;20455;-58
2021/09/06 10:40:10;;;;;;;21.23;12.15;;;;;;;;;;5046468;28;20028;-58
2021/09/06 10:42:38;;;;;;;24.05;13.07;;;;;;;;;;5045295;28;20032;-58
2021/09/06 10:45:06;;;;;;;20.20;11.30;;;;;;;;;;5047645;28;20028;-59
2021/09/06 10:47:40;;;;;;;16.85;9.95;;;;;;;;;;5044552;28;20140;-58
2021/09/06 10:50:15;;;;;;;16.67;10.20;;;;;;;;;;5045727;28;20066;-58
2021/09/06 10:52:45;;;;;;;14.85;10.05;;;;;;;;;;5040304;28;20033;-58
2021/09/06 10:55:13;;;;;;;19.67;10.57;;;;;;;;;;5046510;28;20020;-59
2021/09/06 10:57:39;;;;;;;15.77;10.90;;;;;;;;;;5046340;28;20036;-59
2021/09/06 11:00:06;;;;;;;15.63;10.15;;;;;;;;;;5047128;28;20430;-58
2021/09/06 11:02:32;;;;;;;20.13;10.88;;;;;;;;;;5046292;28;20029;-57
2021/09/06 11:04:57;;;;;;;17.98;11.25;;;;;;;;;;5060248;28;20087;-57
2021/09/06 11:07:23;;;;;;;18.00;10.40;;;;;;;;;;5045687;28;20021;-58
2021/09/06 11:09:48;;;;;;;17.13;10.82;;;;;;;;;;5045464;28;20017;-58
2021/09/06 11:12:14;;;;;;;17.52;10.70;;;;;;;;;;5048208;28;20048;-59
2021/09/06 11:14:45;;;;;;;17.60;9.93;;;;;;;;;;5049426;28;20040;-59
2021/09/06 11:17:22;;;;;;;19.15;11.57;;;;;;;;;;5045239;28;20047;-59
2021/09/06 11:19:49;;;;;;;20.67;10.38;;;;;;;;;;5042677;28;20029;-59
2021/09/06 11:22:22;;;;;;;22.15;10.95;;;;;;;;;;5047433;28;20021;-58
2021/09/06 11:24:48;;;;;;;19.25;11.35;;;;;;;;;;5047600;28;20474;-59
2021/09/06 11:27:31;;;;;;;18.55;11.05;;;;;;;;;;5046247;28;20116;-58
2021/09/06 11:29:58;;;;;;;16.27;10.90;;;;;;;;;;5044122;28;20032;-58
2021/09/06 11:32:24;;;;;;;18.17;10.70;;;;;;;;;;5046400;28;20020;-59
2021/09/06 11:35:02;;;;;;;17.45;10.88;;;;;;;;;;5044032;28;20090;-59
2021/09/06 11:37:27;;;;;;;16.30;10.57;;;;;;;;;;5045607;28;20032;-58
2021/09/06 11:39:54;;;;;;;18.42;10.57;;;;;;;;;;5043605;28;20055;-58
2021/09/06 11:42:20;;;;;;;20.13;11.43;;;;;;;;;;5044829;28;20028;-58
2021/09/06 11:44:46;;;;;;;16.90;10.57;;;;;;;;;;5042620;28;20044;-59
2021/09/06 11:47:12;;;;;;;18.55;10.30;;;;;;;;;;5043207;28;20025;-58
2021/09/06 11:49:40;;;;;;;24.58;10.55;;;;;;;;;;5044515;28;20035;-59
2021/09/06 11:52:09;;;;;;;14.68;9.55;;;;;;;;;;5045513;28;20021;-58
2021/09/06 11:54:43;;;;;;;15.02;9.27;;;;;;;;;;5043899;28;20132;-58
2021/09/06 11:57:11;;;;;;;17.13;10.50;;;;;;;;;;5043388;28;20490;-59
2021/09/06 11:59:37;;;;;;;15.10;9.38;;;;;;;;;;5047146;28;20029;-58
2021/09/06 12:02:11;;;;;;;25.23;14.93;;;;;;;;;;5044910;28;20380;-58
2021/09/06 12:04:39;;;;;;;16.85;9.95;;;;;;;;;;5040900;28;20047;-58
2021/09/06 12:07:12;;;;;;;17.70;9.52;;;;;;;;;;5042166;28;20035;-58
2021/09/06 12:09:37;;;;;;;18.20;10.38;;;;;;;;;;5045015;28;20033;-59
2021/09/06 12:12:14;;;;;;;14.18;10.27;;;;;;;;;;5045932;28;20044;-59
2021/09/06 12:14:47;;;;;;;15.80;9.70;;;;;;;;;;5045274;28;20021;-58
2021/09/06 12:17:12;;;;;;;15.35;10.13;;;;;;;;;;5047110;28;20514;-59
2021/09/06 12:19:43;;;;;;;14.65;9.65;;;;;;;;;;5042146;28;20037;-60
2021/09/06 12:22:20;;;;;;;15.57;9.70;;;;;;;;;;5042027;28;20042;-58
2021/09/06 12:24:53;;;;;;;19.67;9.75;;;;;;;;;;5044980;28;20046;-58
2021/09/06 12:27:20;;;;;;;14.90;9.25;;;;;;;;;;5060939;28;20039;-59
2021/09/06 12:29:58;;;;;;;13.57;9.60;;;;;;;;;;5044577;28;20029;-59
2021/09/06 12:32:24;;;;;;;14.80;9.23;;;;;;;;;;5045961;28;20072;-58
2021/09/06 12:34:50;;;;;;;17.70;10.77;;;;;;;;;;5046048;28;20102;-59
2021/09/06 12:37:16;;;;;;;14.43;9.75;;;;;;;;;;5047727;28;20561;-59
2021/09/06 12:39:42;;;;;;;14.20;9.93;;;;;;;;;;5064234;28;20036;-58
2021/09/06 12:42:07;;;;;;;16.83;10.15;;;;;;;;;;5044785;28;20025;-59
2021/09/06 12:44:34;;;;;;;13.88;9.60;;;;;;;;;;5045070;28;20086;-59
2021/09/06 12:47:02;;;;;;;14.10;9.63;;;;;;;;;;5047502;28;20041;-58
2021/09/06 12:49:28;;;;;;;16.30;9.25;;;;;;;;;;5047437;28;20455;-58
2021/09/06 12:51:55;;;;;;;12.75;9.02;;;;;;;;;;5048200;28;20137;-58
2021/09/06 12:54:20;;;;;;;14.35;9.23;;;;;;;;;;5063303;28;20037;-58
2021/09/06 12:56:47;;;;;;;16.80;10.00;;;;;;;;;;5048458;28;20025;-58
2021/09/06 12:59:12;;;;;;;13.45;9.65;;;;;;;;;;5047898;28;20116;-58
2021/09/06 13:01:38;;;;;;;15.27;10.02;;;;;;;;;;5046658;28;20128;-59
2021/09/06 13:04:03;;;;;;;15.48;9.48;;;;;;;;;;5045375;28;20051;-59
2021/09/06 13:06:29;;;;;;;15.30;8.73;;;;;;;;;;5045518;28;20387;-59
2021/09/06 13:08:54;;;;;;;13.95;8.98;;;;;;;;;;5063265;28;20083;-59
2021/09/06 13:11:19;;;;;;;15.80;8.85;;;;;;;;;;5047120;28;20025;-59
2021/09/06 13:13:45;;;;;;;16.25;8.93;;;;;;;;;;5049870;28;20039;-59
2021/09/06 13:16:10;;;;;;;17.58;9.40;;;;;;;;;;5045904;28;20158;-59
2021/09/06 13:18:36;;;;;;;13.40;8.60;;;;;;;;;;5046374;28;20480;-58
2021/09/06 13:21:03;;;;;;;17.92;9.02;;;;;;;;;;5048666;28;20407;-58
2021/09/06 13:23:29;;;;;;;13.40;9.35;;;;;;;;;;5051706;28;20051;-58
2021/09/06 13:25:55;;;;;;;13.60;9.35;;;;;;;;;;5051913;28;20028;-58
2021/09/06 13:28:21;;;;;;;17.65;9.95;;;;;;;;;;5046098;28;20912;-59
2021/09/06 13:30:46;;;;;;;19.23;11.07;;;;;;;;;;5047192;28;20083;-59
2021/09/06 13:33:12;;;;;;;15.27;9.50;;;;;;;;;;5028138;28;20033;-59
2021/09/06 13:35:37;;;;;;;15.63;9.27;;;;;;;;;;5047522;28;20080;-59
2021/09/06 13:38:03;;;;;;;15.52;9.57;;;;;;;;;;5051091;28;20094;-59
2021/09/06 13:40:28;;;;;;;17.27;9.93;;;;;;;;;;5046924;28;20476;-59
2021/09/06 13:42:54;;;;;;;13.30;9.55;;;;;;;;;;5046630;28;20017;-59
2021/09/06 13:45:19;;;;;;;14.07;8.90;;;;;;;;;;5062061;28;20048;-59
2021/09/06 13:47:45;;;;;;;14.48;9.52;;;;;;;;;;5047094;28;20722;-59
2021/09/06 13:50:10;;;;;;;19.10;9.73;;;;;;;;;;5047111;28;20052;-59
2021/09/06 13:52:36;;;;;;;13.75;9.50;;;;;;;;;;5049273;28;20074;-60
2021/09/06 13:55:01;;;;;;;17.80;9.30;;;;;;;;;;5049361;28;20115;-59
2021/09/06 13:57:27;;;;;;;14.50;9.73;;;;;;;;;;5048454;28;20033;-59
2021/09/06 13:59:53;;;;;;;16.02;9.88;;;;;;;;;;5047206;28;20040;-59
2021/09/06 14:02:18;;;;;;;13.25;8.93;;;;;;;;;;5046415;28;20032;-59
2021/09/06 14:04:44;;;;;;;17.08;9.98;;;;;;;;;;5046837;28;20368;-59
2021/09/06 14:07:09;;;;;;;17.60;9.60;;;;;;;;;;5048556;28;20043;-60
2021/09/06 14:09:36;;;;;;;17.02;9.68;;;;;;;;;;5046502;28;20055;-59
2021/09/06 14:12:02;;;;;;;14.77;9.40;;;;;;;;;;5046836;28;20020;-59
2021/09/06 14:14:27;;;;;;;20.52;9.85;;;;;;;;;;5045994;28;20200;-59
2021/09/06 14:16:53;;;;;;;16.23;9.32;;;;;;;;;;5046631;28;20118;-59